createdAt,value
2019-02-28T00:04:14.315Z,8.29
2019-02-28T00:09:21.546Z,9.36
2019-02-28T00:14:28.686Z,10.25
2019-02-28T00:19:35.848Z,8.30
2019-02-28T00:24:43.032Z,8.91
2019-02-28T00:29:50.200Z,9.85
2019-02-28T00:34:57.432Z,8.44
2019-02-28T00:40:06.615Z,8.16
2019-02-28T00:45:11.336Z,8.62
2019-02-28T00:50:18.498Z,9.56
2019-02-28T00:55:25.705Z,8.53
2019-02-28T01:00:32.906Z,9.17
2019-02-28T01:05:40.068Z,9.24
2019-02-28T01:10:47.259Z,8.64
2019-02-28T01:15:54.438Z,8.80
2019-02-28T01:21:01.658Z,8.24
2019-02-28T01:26:11.745Z,8.32
2019-02-28T01:31:15.538Z,8.19
2019-02-28T01:36:23.000Z,8.68
2019-02-28T01:41:30.231Z,10.37
2019-02-28T01:46:37.540Z,8.60
2019-02-28T01:51:44.727Z,9.01
2019-02-28T01:56:51.887Z,8.45
2019-02-28T02:01:59.094Z,7.68
2019-02-28T02:07:06.306Z,7.41
2019-02-28T02:12:13.614Z,7.37
2019-02-28T02:17:20.811Z,7.99
2019-02-28T02:22:28.195Z,8.16
2019-02-28T02:27:35.417Z,8.28
2019-02-28T02:32:42.640Z,7.86
2019-02-28T02:37:49.805Z,8.43
2019-02-28T02:42:56.991Z,7.30
2019-02-28T02:48:05.279Z,6.87
2019-02-28T02:53:10.900Z,7.07
2019-02-28T02:58:18.141Z,7.98
2019-02-28T03:03:25.417Z,7.80
2019-02-28T03:08:36.369Z,7.83
2019-02-28T03:13:43.577Z,7.70
2019-02-28T03:18:46.041Z,7.57
2019-02-28T03:23:53.245Z,7.45
2019-02-28T03:29:07.618Z,7.09
2019-02-28T03:34:12.821Z,8.11
2019-02-28T03:39:13.890Z,7.20
2019-02-28T03:44:21.911Z,7.35
2019-02-28T03:49:28.613Z,7.37
2019-02-28T03:54:35.890Z,7.83
2019-02-28T03:59:43.084Z,7.60
2019-02-28T04:04:50.479Z,8.38
2019-02-28T04:09:57.907Z,7.68
2019-02-28T04:15:05.895Z,8.68
2019-02-28T04:20:11.845Z,8.60
2019-02-28T04:25:23.036Z,7.81
2019-02-28T04:30:25.687Z,8.16
2019-02-28T04:35:32.839Z,7.93
2019-02-28T04:40:40.021Z,8.32
2019-02-28T04:45:47.146Z,7.93
2019-02-28T04:50:54.411Z,7.44
2019-02-28T04:56:01.584Z,7.50
2019-02-28T05:01:09.152Z,7.57
2019-02-28T05:06:18.259Z,8.01
2019-02-28T05:11:22.304Z,8.22
2019-02-28T05:16:29.444Z,9.10
2019-02-28T05:21:36.645Z,9.45
2019-02-28T05:26:43.859Z,8.70
2019-02-28T05:31:51.027Z,8.37
2019-02-28T05:36:58.227Z,8.94
2019-02-28T05:42:05.377Z,8.69
2019-02-28T05:47:12.556Z,9.09
2019-02-28T05:52:19.883Z,8.95
2019-02-28T05:57:27.305Z,8.86
2019-02-28T06:02:34.522Z,9.38
2019-02-28T06:07:41.688Z,9.25
2019-02-28T06:12:48.851Z,9.78
2019-02-28T06:17:56.012Z,9.08
2019-02-28T06:23:03.190Z,10.48
2019-02-28T06:28:12.009Z,9.91
2019-02-28T06:33:17.036Z,9.40
2019-02-28T06:38:24.391Z,10.30
2019-02-28T06:43:31.519Z,9.97
2019-02-28T06:48:38.659Z,8.54
2019-02-28T06:53:45.777Z,8.01
2019-02-28T06:58:52.914Z,8.30
2019-02-28T07:04:00.064Z,8.39
2019-02-28T07:09:07.237Z,8.38
2019-02-28T07:14:14.411Z,7.32
2019-02-28T07:19:21.574Z,8.38
2019-02-28T07:24:28.795Z,8.42
2019-02-28T07:29:35.975Z,8.94
2019-02-28T07:34:43.182Z,7.97
2019-02-28T07:39:50.394Z,10.45
2019-02-28T07:44:58.919Z,9.94
2019-02-28T07:50:04.263Z,9.72
2019-02-28T07:55:11.425Z,12.10
2019-02-28T08:00:18.805Z,11.82
2019-02-28T08:05:30.151Z,10.67
2019-02-28T08:10:32.852Z,12.38
2019-02-28T08:15:40.037Z,10.86
2019-02-28T08:20:47.224Z,12.91
2019-02-28T08:25:54.474Z,12.83
2019-02-28T08:31:01.729Z,12.57
2019-02-28T08:36:11.819Z,15.48
2019-02-28T08:41:16.033Z,16.62
2019-02-28T08:46:23.403Z,15.53
2019-02-28T08:51:30.958Z,14.18
2019-02-28T08:56:37.217Z,19.62
2019-02-28T09:01:44.384Z,18.99
2019-02-28T09:06:51.539Z,18.90
2019-02-28T09:11:58.920Z,19.36
2019-02-28T09:17:06.224Z,19.17
2019-02-28T09:22:13.383Z,19.77
2019-02-28T09:27:20.558Z,21.05
2019-02-28T09:32:27.852Z,21.44
2019-02-28T09:37:35.028Z,24.90
2019-02-28T09:42:42.167Z,24.61
2019-02-28T09:47:49.356Z,26.33
2019-02-28T09:52:56.496Z,29.99
2019-02-28T09:58:09.692Z,33.13
2019-02-28T10:03:06.932Z,32.84
2019-02-28T10:08:13.974Z,28.53
2019-02-28T10:13:21.123Z,29.04
2019-02-28T10:18:27.285Z,29.52
2019-02-28T10:23:34.396Z,31.86
2019-02-28T10:28:41.551Z,29.95
2019-02-28T10:33:49.503Z,33.82
2019-02-28T10:38:55.451Z,31.26
2019-02-28T10:44:02.602Z,30.15
2019-02-28T10:49:09.772Z,30.96
2019-02-28T10:54:16.936Z,31.64
2019-02-28T10:59:24.437Z,29.66
2019-02-28T11:04:30.835Z,28.93
2019-02-28T11:09:37.975Z,31.24
2019-02-28T11:14:45.146Z,30.22
2019-02-28T11:19:52.888Z,31.48
2019-02-28T11:25:00.997Z,31.46
2019-02-28T11:30:07.413Z,33.55
2019-02-28T11:35:12.463Z,32.74
2019-02-28T11:40:19.611Z,33.45
2019-02-28T11:45:26.743Z,33.21
2019-02-28T11:50:33.886Z,32.64
2019-02-28T11:55:41.019Z,33.61
2019-02-28T12:00:48.176Z,31.21
2019-02-28T12:05:55.455Z,29.75
2019-02-28T12:11:02.888Z,30.56
2019-02-28T12:16:09.757Z,30.03
2019-02-28T12:21:16.913Z,31.03
2019-02-28T12:26:24.104Z,30.71
2019-02-28T12:31:32.072Z,31.83
2019-02-28T12:36:42.924Z,30.97
2019-02-28T12:41:40.194Z,29.83
2019-02-28T12:46:47.179Z,27.41
2019-02-28T12:51:54.356Z,25.74
2019-02-28T12:57:01.500Z,25.92
2019-02-28T13:02:08.682Z,26.91
2019-02-28T13:07:15.845Z,27.87
2019-02-28T13:12:23.302Z,29.40
2019-02-28T13:17:31.707Z,31.68
2019-02-28T13:22:37.229Z,34.64
2019-02-28T13:27:45.212Z,37.54
2019-02-28T13:32:51.449Z,48.66
2019-02-28T13:37:58.600Z,49.43
2019-02-28T13:43:06.073Z,47.34
2019-02-28T13:48:13.333Z,45.05
2019-02-28T13:53:23.165Z,42.51
2019-02-28T13:58:27.589Z,43.91
2019-02-28T14:03:36.595Z,44.33
2019-02-28T14:08:46.081Z,57.36
2019-02-28T14:13:51.490Z,55.31
2019-02-28T14:18:58.615Z,46.97
2019-02-28T14:24:05.731Z,40.01
2019-02-28T14:29:12.921Z,38.08
2019-02-28T14:34:20.071Z,34.16
2019-02-28T14:39:27.495Z,33.09
2019-02-28T14:44:34.762Z,35.27
2019-02-28T14:49:43.825Z,35.99
2019-02-28T14:54:50.281Z,34.34
2019-02-28T14:59:57.471Z,32.21
2019-02-28T15:05:04.622Z,30.72
2019-02-28T15:10:11.905Z,28.69
2019-02-28T15:15:19.054Z,28.25
2019-02-28T15:20:31.509Z,26.86
2019-02-28T15:25:33.197Z,25.77
2019-02-28T15:30:40.435Z,24.80
2019-02-28T15:35:49.691Z,23.81
2019-02-28T15:40:55.669Z,23.26
2019-02-28T15:46:01.563Z,22.13
2019-02-28T15:51:08.733Z,20.87
2019-02-28T15:56:19.592Z,21.14
2019-02-28T16:01:23.058Z,20.10
2019-02-28T16:06:30.232Z,19.51
2019-02-28T16:11:40.717Z,19.18
2019-02-28T16:16:44.052Z,21.17
2019-02-28T16:21:51.498Z,16.64
2019-02-28T16:26:58.697Z,15.17
2019-02-28T16:32:05.970Z,13.50
2019-02-28T16:37:13.110Z,13.56
2019-02-28T16:42:20.456Z,12.93
2019-02-28T16:47:27.829Z,13.56
2019-02-28T16:52:37.362Z,13.90
2019-02-28T16:57:43.546Z,12.18
2019-02-28T17:02:48.941Z,10.37
2019-02-28T17:07:56.670Z,10.41
2019-02-28T17:13:04.226Z,10.79
2019-02-28T17:18:12.975Z,9.89
2019-02-28T17:23:18.709Z,9.27
2019-02-28T17:28:24.778Z,9.87
2019-02-28T17:33:31.933Z,10.87
2019-02-28T17:38:39.107Z,11.07
2019-02-28T17:43:46.240Z,12.96
2019-02-28T17:48:53.442Z,11.37
2019-02-28T17:54:00.698Z,11.38
2019-02-28T17:59:07.879Z,12.25
2019-02-28T18:04:15.082Z,11.32
2019-02-28T18:09:22.304Z,12.21
2019-02-28T18:14:31.257Z,12.20
2019-02-28T18:19:37.001Z,13.25
2019-02-28T18:24:42.888Z,11.50
2019-02-28T18:29:50.130Z,13.93
2019-02-28T18:34:57.268Z,14.87
2019-02-28T18:40:04.786Z,13.07
2019-02-28T18:45:12.208Z,12.14
2019-02-28T18:50:19.566Z,13.10
2019-02-28T18:55:34.610Z,12.56
2019-02-28T19:00:33.570Z,12.37
2019-02-28T19:05:41.010Z,12.20
2019-02-28T19:10:48.498Z,12.18
2019-02-28T19:15:55.912Z,13.24
2019-02-28T19:21:03.092Z,12.24
2019-02-28T19:26:10.313Z,13.36
2019-02-28T19:31:17.751Z,11.05
2019-02-28T19:36:25.366Z,11.64
2019-02-28T19:41:33.843Z,12.20
2019-02-28T19:46:40.974Z,12.76
2019-02-28T19:51:48.370Z,11.98
2019-02-28T19:56:55.532Z,13.86
2019-02-28T20:02:02.733Z,12.98
2019-02-28T20:07:10.398Z,13.58
2019-02-28T20:12:17.986Z,13.40
2019-02-28T20:17:25.225Z,13.08
2019-02-28T20:22:32.950Z,12.96
2019-02-28T20:27:39.485Z,14.31
2019-02-28T20:32:47.264Z,13.20
2019-02-28T20:37:54.581Z,13.33
2019-02-28T20:43:02.572Z,11.14
2019-02-28T20:48:09.906Z,12.07
2019-02-28T20:53:17.457Z,11.82
2019-02-28T20:58:24.801Z,12.23
2019-02-28T21:03:32.296Z,11.05
2019-02-28T21:08:40.117Z,11.21
2019-02-28T21:13:47.475Z,12.65
2019-02-28T21:18:54.855Z,11.84
2019-02-28T21:24:02.647Z,11.60
2019-02-28T21:29:09.929Z,13.71
2019-02-28T21:34:18.454Z,13.40
2019-02-28T21:39:24.039Z,14.31
2019-02-28T21:44:31.614Z,15.72
2019-02-28T21:49:38.884Z,15.83
2019-02-28T21:54:46.411Z,13.69
2019-02-28T21:59:53.610Z,12.53
2019-02-28T22:05:00.741Z,13.28
2019-02-28T22:10:08.091Z,12.64
2019-02-28T22:15:15.480Z,14.08
2019-02-28T22:20:22.812Z,13.63
2019-02-28T22:25:30.006Z,13.56
2019-02-28T22:30:37.306Z,12.35
2019-02-28T22:35:44.759Z,13.78
2019-02-28T22:40:52.250Z,13.25
2019-02-28T22:45:59.572Z,12.72
2019-02-28T22:51:06.911Z,12.54
2019-02-28T22:56:14.029Z,12.55
2019-02-28T23:01:21.539Z,12.61
2019-02-28T23:06:28.989Z,11.56
2019-02-28T23:11:36.740Z,11.03
2019-02-28T23:16:43.945Z,10.95
2019-02-28T23:21:50.250Z,10.34
2019-02-28T23:26:57.757Z,9.59
2019-02-28T23:32:04.919Z,9.03
2019-02-28T23:37:12.085Z,8.60
2019-02-28T23:42:19.335Z,7.87
2019-02-28T23:47:26.891Z,6.93
2019-02-28T23:52:34.307Z,6.94
2019-02-28T23:57:41.585Z,7.59
